createdAt,value
2022-09-30T00:02:40.713Z,10.10
2022-09-30T00:06:01.306Z,10.13
2022-09-30T00:09:17.067Z,10.16
2022-09-30T00:12:34.951Z,10.16
2022-09-30T00:15:50.369Z,10.14
2022-09-30T00:19:04.116Z,10.12
2022-09-30T00:22:15.246Z,10.10
2022-09-30T00:25:22.052Z,10.11
2022-09-30T00:28:29.233Z,10.13
2022-09-30T00:31:36.857Z,10.17
2022-09-30T00:34:43.489Z,10.21
2022-09-30T00:37:50.253Z,10.24
2022-09-30T00:40:57.998Z,10.24
2022-09-30T00:44:18.329Z,10.26
2022-09-30T00:47:40.252Z,10.23
2022-09-30T00:50:49.831Z,10.23
2022-09-30T00:54:01.554Z,10.25
2022-09-30T00:57:10.639Z,10.28
2022-09-30T01:00:17.225Z,10.31
2022-09-30T01:03:25.693Z,10.32
2022-09-30T01:06:32.595Z,10.34
2022-09-30T01:09:42.226Z,10.35
2022-09-30T01:12:48.783Z,10.36
2022-09-30T01:16:08.198Z,10.38
2022-09-30T01:19:36.248Z,10.39
2022-09-30T01:22:50.758Z,10.39
2022-09-30T01:26:40.047Z,10.38
2022-09-30T01:30:10.869Z,10.37
2022-09-30T01:33:34.605Z,10.37
2022-09-30T01:36:56.110Z,10.37
2022-09-30T01:40:09.488Z,10.37
2022-09-30T01:43:26.669Z,10.37
2022-09-30T01:46:37.872Z,10.38
2022-09-30T01:49:49.135Z,10.39
2022-09-30T01:53:05.612Z,10.40
2022-09-30T01:56:19.241Z,10.40
2022-09-30T01:59:32.053Z,10.41
2022-09-30T02:02:43.748Z,10.42
2022-09-30T02:05:57.960Z,10.42
2022-09-30T02:09:08.523Z,10.42
2022-09-30T02:12:21.085Z,10.40
2022-09-30T02:15:38.468Z,10.35
2022-09-30T02:18:50.496Z,10.35
2022-09-30T02:22:01.857Z,10.36
2022-09-30T02:25:11.848Z,10.37
2022-09-30T02:28:27.299Z,10.39
2022-09-30T02:31:37.453Z,10.40
2022-09-30T02:34:46.979Z,10.40
2022-09-30T02:37:57.869Z,10.41
2022-09-30T02:41:10.749Z,10.42
2022-09-30T02:44:19.061Z,10.42
2022-09-30T02:47:32.761Z,10.43
2022-09-30T02:50:46.761Z,10.43
2022-09-30T02:54:02.364Z,10.43
2022-09-30T02:57:19.652Z,10.40
2022-09-30T03:00:26.474Z,10.33
2022-09-30T03:03:39.378Z,10.29
2022-09-30T03:06:46.367Z,10.29
2022-09-30T03:09:57.103Z,10.31
2022-09-30T03:13:22.995Z,10.34
2022-09-30T03:16:46.778Z,10.36
2022-09-30T03:20:06.863Z,10.38
2022-09-30T03:23:35.448Z,10.35
2022-09-30T03:26:50.351Z,10.37
2022-09-30T03:30:03.449Z,10.40
2022-09-30T03:33:17.512Z,10.41
2022-09-30T03:36:32.372Z,10.43
2022-09-30T03:39:50.424Z,10.45
2022-09-30T03:43:07.298Z,10.44
2022-09-30T03:46:23.030Z,10.43
2022-09-30T03:49:33.967Z,10.44
2022-09-30T03:52:41.005Z,10.46
2022-09-30T03:55:53.221Z,10.50
2022-09-30T03:58:59.870Z,10.50
2022-09-30T04:02:07.234Z,10.46
2022-09-30T04:05:14.149Z,10.47
2022-09-30T04:08:20.887Z,10.51
2022-09-30T04:11:27.752Z,10.51
2022-09-30T04:14:34.605Z,10.52
2022-09-30T04:17:41.077Z,10.50
2022-09-30T04:20:47.503Z,10.44
2022-09-30T04:23:54.165Z,10.44
2022-09-30T04:27:00.748Z,10.44
2022-09-30T04:30:08.356Z,10.42
2022-09-30T04:33:14.844Z,10.42
2022-09-30T04:36:21.533Z,10.43
2022-09-30T04:39:27.770Z,10.45
2022-09-30T04:42:33.098Z,10.47
2022-09-30T04:45:39.423Z,10.47
2022-09-30T04:48:46.644Z,10.45
2022-09-30T04:51:52.856Z,10.45
2022-09-30T04:54:58.907Z,10.48
2022-09-30T04:58:05.191Z,10.52
2022-09-30T05:01:13.660Z,10.55
2022-09-30T05:04:20.106Z,10.55
2022-09-30T05:07:26.931Z,10.54
2022-09-30T05:10:33.740Z,10.53
2022-09-30T05:13:41.671Z,10.49
2022-09-30T05:16:47.899Z,10.45
2022-09-30T05:19:52.545Z,10.44
2022-09-30T05:22:59.454Z,10.46
2022-09-30T05:26:11.120Z,10.51
2022-09-30T05:29:19.594Z,10.54
2022-09-30T05:32:26.030Z,10.53
2022-09-30T05:35:32.327Z,10.58
2022-09-30T05:38:38.999Z,10.63
2022-09-30T05:41:45.255Z,10.66
2022-09-30T05:44:49.860Z,10.70
2022-09-30T05:47:56.858Z,10.70
2022-09-30T05:51:03.623Z,10.72
2022-09-30T05:54:10.904Z,10.75
2022-09-30T05:57:17.403Z,10.78
2022-09-30T06:00:23.778Z,10.82
2022-09-30T06:03:30.042Z,10.81
2022-09-30T06:06:35.944Z,10.82
2022-09-30T06:09:42.791Z,10.86
2022-09-30T06:12:49.093Z,10.91
2022-09-30T06:16:03.388Z,10.94
2022-09-30T06:19:09.862Z,10.96
2022-09-30T06:22:16.324Z,11.00
2022-09-30T06:25:22.543Z,11.02
2022-09-30T06:28:27.487Z,11.02
2022-09-30T06:31:33.922Z,11.03
2022-09-30T06:34:40.197Z,11.08
2022-09-30T06:37:46.072Z,11.10
2022-09-30T06:40:52.510Z,11.11
2022-09-30T06:43:58.586Z,11.15
2022-09-30T06:47:05.531Z,11.19
2022-09-30T06:50:23.470Z,11.21
2022-09-30T06:53:31.235Z,11.22
2022-09-30T06:56:37.454Z,11.23
2022-09-30T06:59:41.863Z,11.21
2022-09-30T07:02:48.921Z,11.22
2022-09-30T07:06:00.269Z,11.27
2022-09-30T07:09:06.693Z,11.33
2022-09-30T07:12:12.919Z,11.37
2022-09-30T07:15:17.649Z,11.40
2022-09-30T07:18:24.167Z,11.41
2022-09-30T07:21:31.620Z,11.43
2022-09-30T07:24:37.742Z,11.48
2022-09-30T07:27:42.313Z,11.53
2022-09-30T07:30:48.426Z,11.54
2022-09-30T07:33:53.353Z,11.59
2022-09-30T07:36:59.438Z,11.63
2022-09-30T07:40:08.638Z,11.66
2022-09-30T07:43:19.248Z,11.70
2022-09-30T07:46:27.213Z,11.75
2022-09-30T07:49:33.826Z,11.78
2022-09-30T07:52:39.917Z,11.82
2022-09-30T07:55:46.043Z,11.84
2022-09-30T07:58:54.550Z,11.86
2022-09-30T08:02:00.725Z,11.86
2022-09-30T08:05:07.761Z,11.82
2022-09-30T08:08:14.339Z,11.78
2022-09-30T08:11:20.744Z,11.77
2022-09-30T08:14:29.078Z,11.77
2022-09-30T08:17:35.202Z,11.82
2022-09-30T08:20:39.654Z,11.85
2022-09-30T08:23:45.780Z,11.83
2022-09-30T08:26:50.340Z,11.85
2022-09-30T08:29:58.378Z,11.88
2022-09-30T08:33:06.460Z,11.94
2022-09-30T08:36:15.508Z,12.00
2022-09-30T08:39:21.649Z,12.06
2022-09-30T08:42:41.600Z,12.11
2022-09-30T08:45:59.652Z,12.18
2022-09-30T08:49:17.267Z,12.24
2022-09-30T08:52:37.347Z,12.32
2022-09-30T08:55:50.828Z,12.37
2022-09-30T08:58:59.034Z,12.42
2022-09-30T09:02:17.485Z,12.45
2022-09-30T09:05:37.559Z,12.46
2022-09-30T09:08:57.680Z,12.48
2022-09-30T09:12:14.365Z,12.50
2022-09-30T09:15:42.199Z,12.49
2022-09-30T09:18:59.694Z,12.49
2022-09-30T09:22:05.886Z,12.47
2022-09-30T09:25:14.442Z,12.47
2022-09-30T09:28:29.383Z,12.41
2022-09-30T09:31:35.615Z,12.40
2022-09-30T09:34:41.368Z,12.48
2022-09-30T09:38:10.531Z,12.54
2022-09-30T09:41:33.529Z,12.56
2022-09-30T09:44:48.430Z,12.58
2022-09-30T09:48:00.211Z,12.60
2022-09-30T09:51:14.582Z,12.63
2022-09-30T09:54:28.262Z,12.67
2022-09-30T09:57:34.426Z,12.73
2022-09-30T10:00:56.260Z,12.78
2022-09-30T10:04:17.865Z,12.83
2022-09-30T10:07:23.983Z,12.88
2022-09-30T10:10:30.131Z,12.90
2022-09-30T10:13:45.455Z,12.92
2022-09-30T10:16:51.763Z,12.95
2022-09-30T10:20:04.442Z,12.95
2022-09-30T10:23:20.641Z,12.95
2022-09-30T10:26:28.808Z,12.97
2022-09-30T10:29:36.716Z,12.97
2022-09-30T10:32:42.814Z,12.96
2022-09-30T10:35:55.991Z,12.95
2022-09-30T10:39:07.405Z,12.96
2022-09-30T10:42:25.988Z,12.97
2022-09-30T10:45:37.407Z,12.98
2022-09-30T10:48:50.210Z,13.01
2022-09-30T10:51:57.194Z,13.01
2022-09-30T10:55:13.284Z,13.00
2022-09-30T10:58:31.018Z,13.01
2022-09-30T11:01:42.051Z,13.01
2022-09-30T11:04:54.314Z,13.03
2022-09-30T11:11:56.554Z,13.07
2022-09-30T11:15:09.484Z,13.11
2022-09-30T11:18:23.037Z,13.12
2022-09-30T11:21:35.437Z,13.18
2022-09-30T11:24:45.367Z,13.25
2022-09-30T11:28:10.153Z,13.32
2022-09-30T11:31:26.333Z,13.37
2022-09-30T11:34:44.777Z,13.43
2022-09-30T11:38:10.427Z,13.50
2022-09-30T11:41:19.637Z,13.56
2022-09-30T11:44:34.045Z,13.58
2022-09-30T11:47:56.512Z,13.59
2022-09-30T11:51:11.680Z,13.61
2022-09-30T11:54:32.907Z,13.53
2022-09-30T11:57:45.157Z,13.42
2022-09-30T12:00:58.423Z,13.29
2022-09-30T12:04:11.023Z,13.23
2022-09-30T12:07:20.177Z,13.24
2022-09-30T12:10:29.257Z,13.25
2022-09-30T12:13:39.368Z,13.24
2022-09-30T12:16:47.308Z,13.23
2022-09-30T12:19:57.658Z,13.21
2022-09-30T12:23:14.587Z,13.23
2022-09-30T12:26:21.115Z,13.24
2022-09-30T12:29:48.970Z,13.25
2022-09-30T12:33:19.939Z,13.27
2022-09-30T12:36:52.598Z,13.31
2022-09-30T12:40:20.184Z,13.35
2022-09-30T12:43:59.491Z,13.39
2022-09-30T12:47:20.994Z,13.43
2022-09-30T12:50:31.270Z,13.44
2022-09-30T12:53:39.114Z,13.46
2022-09-30T12:56:47.327Z,13.47
2022-09-30T12:59:56.550Z,13.46
2022-09-30T13:03:08.339Z,13.47
2022-09-30T13:06:15.486Z,13.47
2022-09-30T13:09:31.278Z,13.48
2022-09-30T13:12:47.859Z,13.50
2022-09-30T13:15:56.343Z,13.53
2022-09-30T13:19:05.530Z,13.56
2022-09-30T13:22:54.367Z,13.55
2022-09-30T13:26:02.108Z,13.57
2022-09-30T13:29:38.551Z,13.58
2022-09-30T13:32:48.009Z,13.57
2022-09-30T13:35:58.647Z,13.55
2022-09-30T13:39:21.053Z,13.58
2022-09-30T13:42:31.575Z,13.62
2022-09-30T13:45:39.966Z,13.65
2022-09-30T13:48:56.229Z,13.68
2022-09-30T13:52:03.888Z,13.71
2022-09-30T13:55:18.976Z,13.74
2022-09-30T13:58:46.238Z,13.82
2022-09-30T14:02:08.666Z,13.85
2022-09-30T14:05:36.227Z,13.84
2022-09-30T14:09:07.819Z,13.86
2022-09-30T14:12:44.318Z,13.86
2022-09-30T14:16:34.914Z,13.86
2022-09-30T14:20:09.402Z,13.84
2022-09-30T14:23:20.345Z,13.84
2022-09-30T14:26:45.053Z,13.85
2022-09-30T14:30:00.317Z,13.88
2022-09-30T14:33:13.412Z,13.91
2022-09-30T14:36:21.962Z,13.92
2022-09-30T14:39:31.842Z,13.89
2022-09-30T14:42:42.585Z,13.83
2022-09-30T14:45:53.139Z,13.78
2022-09-30T14:49:04.690Z,13.77
2022-09-30T14:52:38.103Z,13.75
2022-09-30T14:55:44.282Z,13.74
2022-09-30T14:58:52.480Z,13.71
2022-09-30T15:02:02.978Z,13.67
2022-09-30T15:05:14.192Z,13.64
2022-09-30T15:08:22.865Z,13.63
2022-09-30T15:24:55.218Z,13.74
2022-09-30T15:28:01.317Z,13.73
2022-09-30T15:31:08.312Z,13.71
2022-09-30T15:34:23.251Z,13.68
2022-09-30T15:37:33.917Z,13.62
2022-09-30T15:40:49.238Z,13.57
2022-09-30T15:43:55.886Z,13.52
2022-09-30T15:47:07.254Z,13.48
2022-09-30T15:50:41.442Z,13.46
2022-09-30T15:53:51.558Z,13.46
2022-09-30T15:56:57.767Z,13.43
2022-09-30T16:00:07.970Z,13.41
2022-09-30T16:03:31.228Z,13.39
2022-09-30T16:06:45.165Z,13.32
2022-09-30T16:09:51.166Z,13.29
2022-09-30T16:12:57.095Z,13.24
2022-09-30T16:16:03.364Z,13.19
2022-09-30T16:19:17.179Z,13.17
2022-09-30T16:22:52.161Z,13.15
2022-09-30T16:26:19.503Z,13.12
2022-09-30T16:29:26.276Z,13.09
2022-09-30T16:32:36.718Z,13.07
2022-09-30T16:35:44.754Z,13.05
2022-09-30T16:38:50.667Z,13.06
2022-09-30T16:41:56.495Z,13.05
2022-09-30T16:45:02.356Z,13.02
2022-09-30T16:48:15.568Z,13.00
2022-09-30T16:51:21.431Z,13.00
2022-09-30T16:54:27.507Z,12.99
2022-09-30T16:57:33.365Z,12.99
2022-09-30T17:00:39.755Z,12.98
2022-09-30T17:03:46.571Z,12.97
2022-09-30T17:06:52.441Z,12.95
2022-09-30T17:09:58.270Z,12.93
2022-09-30T17:13:05.547Z,12.91
2022-09-30T17:16:11.617Z,12.85
2022-09-30T17:19:16.113Z,12.84
2022-09-30T17:22:21.975Z,12.83
2022-09-30T17:25:28.191Z,12.80
2022-09-30T17:28:34.901Z,12.73
2022-09-30T17:31:40.796Z,12.68
2022-09-30T17:34:46.702Z,12.68
2022-09-30T17:37:52.569Z,12.70
2022-09-30T17:41:16.292Z,12.72
2022-09-30T17:44:22.166Z,12.73
2022-09-30T17:47:28.338Z,12.73
2022-09-30T17:50:32.589Z,12.74
2022-09-30T17:53:38.497Z,12.73
2022-09-30T17:56:44.742Z,12.73
2022-09-30T17:59:51.538Z,12.72
2022-09-30T18:02:57.590Z,12.72
2022-09-30T18:06:03.952Z,12.73
2022-09-30T18:09:11.349Z,12.73
2022-09-30T18:12:19.275Z,12.72
2022-09-30T18:15:27.176Z,12.72
2022-09-30T18:18:34.775Z,12.71
2022-09-30T18:21:40.806Z,12.71
2022-09-30T18:25:09.262Z,12.70
2022-09-30T18:28:15.419Z,12.69
2022-09-30T18:31:28.489Z,12.70
2022-09-30T18:34:34.768Z,12.69
2022-09-30T18:37:39.606Z,12.69
2022-09-30T18:40:45.929Z,12.68
2022-09-30T18:43:59.668Z,12.68
2022-09-30T18:47:05.585Z,12.66
2022-09-30T18:50:13.688Z,12.66
2022-09-30T18:53:20.729Z,12.65
2022-09-30T18:56:32.179Z,12.66
2022-09-30T18:59:38.407Z,12.66
2022-09-30T19:02:45.182Z,12.66
2022-09-30T19:05:51.035Z,12.66
2022-09-30T19:08:56.971Z,12.65
2022-09-30T19:12:03.221Z,12.65
2022-09-30T19:15:11.889Z,12.65
2022-09-30T19:18:18.124Z,12.65
2022-09-30T19:21:24.395Z,12.65
2022-09-30T19:24:30.306Z,12.65
2022-09-30T19:27:37.823Z,12.64
2022-09-30T19:30:43.683Z,12.65
2022-09-30T19:33:56.454Z,12.64
2022-09-30T19:37:02.858Z,12.63
2022-09-30T19:40:20.502Z,12.63
2022-09-30T19:43:29.317Z,12.63
2022-09-30T19:46:35.772Z,12.63
2022-09-30T19:49:41.735Z,12.62
2022-09-30T19:52:55.826Z,12.56
2022-09-30T19:56:05.918Z,12.56
2022-09-30T19:59:11.919Z,12.56
2022-09-30T20:02:20.081Z,12.57
2022-09-30T20:05:26.471Z,12.57
2022-09-30T20:08:33.755Z,12.58
2022-09-30T20:11:40.893Z,12.58
2022-09-30T20:15:04.374Z,12.58
2022-09-30T20:18:10.226Z,12.59
2022-09-30T20:21:17.834Z,12.59
2022-09-30T20:24:25.129Z,12.59
2022-09-30T20:27:33.074Z,12.58
2022-09-30T20:30:45.709Z,12.58
2022-09-30T20:33:55.010Z,12.58
2022-09-30T20:37:00.848Z,12.57
2022-09-30T20:40:09.291Z,12.58
2022-09-30T20:43:15.205Z,12.58
2022-09-30T20:46:21.432Z,12.58
2022-09-30T20:49:25.654Z,12.58
2022-09-30T20:52:31.495Z,12.58
2022-09-30T20:55:40.045Z,12.57
2022-09-30T20:58:46.770Z,12.57
2022-09-30T21:01:52.659Z,12.58
2022-09-30T21:04:59.765Z,12.58
2022-09-30T21:08:07.438Z,12.57
2022-09-30T21:11:13.650Z,12.58
2022-09-30T21:14:19.519Z,12.57
2022-09-30T21:17:25.419Z,12.57
2022-09-30T21:20:31.338Z,12.56
2022-09-30T21:23:38.087Z,12.56
2022-09-30T21:26:43.991Z,12.55
2022-09-30T21:29:50.991Z,12.54
2022-09-30T21:32:56.938Z,12.52
2022-09-30T21:36:04.755Z,12.50
2022-09-30T21:39:12.654Z,12.49
2022-09-30T21:42:19.183Z,12.48
2022-09-30T21:45:25.609Z,12.47
2022-09-30T21:48:33.340Z,12.47
2022-09-30T21:51:39.174Z,12.48
2022-09-30T21:54:45.049Z,12.47
2022-09-30T21:57:50.887Z,12.48
2022-09-30T22:01:00.708Z,12.46
2022-09-30T22:04:07.419Z,12.46
2022-09-30T22:07:15.567Z,12.46
2022-09-30T22:10:21.494Z,12.44
2022-09-30T22:13:27.349Z,12.44
2022-09-30T22:16:35.983Z,12.44
2022-09-30T22:19:41.903Z,12.44
2022-09-30T22:22:49.049Z,12.44
2022-09-30T22:25:56.913Z,12.44
2022-09-30T22:29:04.425Z,12.43
2022-09-30T22:32:10.384Z,12.43
2022-09-30T22:35:33.983Z,12.43
2022-09-30T22:38:39.827Z,12.41
2022-09-30T22:41:45.705Z,12.41
2022-09-30T22:44:52.122Z,12.41
2022-09-30T22:47:58.686Z,12.41
2022-09-30T22:51:05.194Z,12.37
2022-09-30T22:54:12.373Z,12.35
2022-09-30T22:57:18.242Z,12.34
2022-09-30T23:00:24.115Z,12.35
2022-09-30T23:03:30.076Z,12.34
2022-09-30T23:06:36.603Z,12.34
2022-09-30T23:09:42.448Z,12.33
2022-09-30T23:12:51.495Z,12.32
2022-09-30T23:16:02.545Z,12.30
2022-09-30T23:19:08.638Z,12.30
2022-09-30T23:22:13.572Z,12.29
2022-09-30T23:25:19.420Z,12.27
2022-09-30T23:28:25.359Z,12.27
2022-09-30T23:31:32.182Z,12.26
2022-09-30T23:34:38.346Z,12.26
2022-09-30T23:37:44.393Z,12.25
2022-09-30T23:40:51.199Z,12.24
2022-09-30T23:43:57.092Z,12.20
2022-09-30T23:47:21.645Z,12.15
2022-09-30T23:50:27.631Z,12.12
2022-09-30T23:53:34.535Z,12.13
2022-09-30T23:56:41.529Z,12.13
2022-09-30T23:59:47.400Z,12.13
